createdAt,value
2022-10-10T00:00:08.929Z,0.05
2022-10-10T00:02:15.956Z,0
2022-10-10T00:04:21.686Z,-0.06
2022-10-10T00:06:30.452Z,-0.05
2022-10-10T00:08:37.991Z,-0.04
2022-10-10T00:10:43.075Z,-0.04
2022-10-10T00:12:48.654Z,-0.06
2022-10-10T00:14:55.578Z,-0.06
2022-10-10T00:17:00.779Z,-0.09
2022-10-10T00:19:05.785Z,-0.09
2022-10-10T00:21:11.098Z,-0.06
2022-10-10T00:23:16.317Z,-0.07
2022-10-10T00:25:21.673Z,-0.1
2022-10-10T00:27:27.180Z,-0.15
2022-10-10T00:29:32.321Z,-0.18
2022-10-10T00:31:40.617Z,-0.21
2022-10-10T00:33:45.618Z,-0.2
2022-10-10T00:35:51.769Z,-0.19
2022-10-10T00:37:56.884Z,-0.2
2022-10-10T00:40:02.366Z,-0.24
2022-10-10T00:42:07.380Z,-0.28
2022-10-10T00:44:12.679Z,-0.33
2022-10-10T00:46:17.815Z,-0.36
2022-10-10T00:48:26.671Z,-0.34
2022-10-10T00:50:32.356Z,-0.32
2022-10-10T00:52:37.475Z,-0.32
2022-10-10T00:54:42.440Z,-0.35
2022-10-10T00:56:48.660Z,-0.36
2022-10-10T00:58:57.448Z,-0.38
2022-10-10T01:01:02.656Z,-0.35
2022-10-10T01:03:08.502Z,-0.28
2022-10-10T01:05:13.986Z,-0.26
2022-10-10T01:07:19.094Z,-0.29
2022-10-10T01:09:24.129Z,-0.29
2022-10-10T01:11:29.264Z,-0.27
2022-10-10T01:13:34.568Z,-0.23
2022-10-10T01:15:40.012Z,-0.25
2022-10-10T01:17:44.979Z,-0.22
2022-10-10T01:19:50.198Z,-0.22
2022-10-10T01:21:55.344Z,-0.24
2022-10-10T01:24:00.577Z,-0.22
2022-10-10T01:26:05.671Z,-0.15
2022-10-10T01:28:11.063Z,-0.13
2022-10-10T01:30:17.488Z,-0.14
2022-10-10T01:32:22.723Z,-0.15
2022-10-10T01:34:27.733Z,-0.14
2022-10-10T01:36:32.885Z,-0.18
2022-10-10T01:38:37.932Z,-0.21
2022-10-10T01:40:43.032Z,-0.23
2022-10-10T01:42:50.356Z,-0.3
2022-10-10T01:44:56.739Z,-0.37
2022-10-10T01:47:01.854Z,-0.39
2022-10-10T01:49:07.188Z,-0.42
2022-10-10T01:51:12.211Z,-0.44
2022-10-10T01:53:18.555Z,-0.47
2022-10-10T01:55:23.748Z,-0.49
2022-10-10T01:57:28.855Z,-0.52
2022-10-10T01:59:34.953Z,-0.54
2022-10-10T02:01:39.918Z,-0.54
2022-10-10T02:03:44.973Z,-0.55
2022-10-10T02:05:50.130Z,-0.53
2022-10-10T02:07:55.430Z,-0.52
2022-10-10T02:10:00.563Z,-0.53
2022-10-10T02:12:05.804Z,-0.51
2022-10-10T02:14:10.923Z,-0.55
2022-10-10T02:16:16.232Z,-0.58
2022-10-10T02:18:21.273Z,-0.6
2022-10-10T02:20:29.748Z,-0.61
2022-10-10T02:22:34.979Z,-0.58
2022-10-10T02:24:40.117Z,-0.6
2022-10-10T02:26:48.682Z,-0.6
2022-10-10T02:28:53.840Z,-0.62
2022-10-10T02:30:58.991Z,-0.63
2022-10-10T02:33:04.073Z,-0.61
2022-10-10T02:35:09.165Z,-0.62
2022-10-10T02:37:14.180Z,-0.63
2022-10-10T02:39:20.401Z,-0.64
2022-10-10T02:41:25.588Z,-0.65
2022-10-10T02:43:31.266Z,-0.65
2022-10-10T02:45:37.511Z,-0.67
2022-10-10T02:47:42.835Z,-0.66
2022-10-10T02:49:50.128Z,-0.67
2022-10-10T02:51:55.434Z,-0.68
2022-10-10T02:54:00.500Z,-0.68
2022-10-10T02:56:05.567Z,-0.65
2022-10-10T02:58:10.579Z,-0.58
2022-10-10T03:00:15.642Z,-0.54
2022-10-10T03:02:21.033Z,-0.52
2022-10-10T03:04:26.282Z,-0.53
2022-10-10T03:06:31.404Z,-0.53
2022-10-10T03:08:39.519Z,-0.54
2022-10-10T03:10:45.905Z,-0.56
2022-10-10T03:12:51.424Z,-0.57
2022-10-10T03:14:58.808Z,-0.58
2022-10-10T03:17:05.413Z,-0.58
2022-10-10T03:19:10.546Z,-0.59
2022-10-10T03:21:19.414Z,-0.59
2022-10-10T03:23:24.375Z,-0.63
2022-10-10T03:25:29.786Z,-0.67
2022-10-10T03:27:35.145Z,-0.73
2022-10-10T03:29:40.381Z,-0.76
2022-10-10T03:31:45.256Z,-0.78
2022-10-10T03:33:50.606Z,-0.79
2022-10-10T03:35:55.720Z,-0.78
2022-10-10T03:38:00.837Z,-0.75
2022-10-10T03:40:05.875Z,-0.76
2022-10-10T03:42:11.171Z,-0.77
2022-10-10T03:44:16.458Z,-0.78
2022-10-10T03:46:22.473Z,-0.83
2022-10-10T03:48:27.849Z,-0.86
2022-10-10T03:50:33.152Z,-0.88
2022-10-10T03:55:04.327Z,-0.93
2022-10-10T03:57:09.839Z,-0.93
2022-10-10T03:59:15.132Z,-0.93
2022-10-10T04:01:21.115Z,-0.96
2022-10-10T04:03:26.691Z,-0.97
2022-10-10T04:05:32.654Z,-1
2022-10-10T04:07:37.805Z,-1
2022-10-10T04:09:43.385Z,-1
2022-10-10T04:11:50.770Z,-1.03
2022-10-10T04:13:55.838Z,-1.04
2022-10-10T04:16:00.769Z,-1.04
2022-10-10T04:18:06.198Z,-1.04
2022-10-10T04:20:11.359Z,-1.05
2022-10-10T04:22:16.692Z,-1.06
2022-10-10T04:24:21.676Z,-1.09
2022-10-10T04:26:26.986Z,-1.12
2022-10-10T04:28:32.921Z,-1.13
2022-10-10T04:30:39.993Z,-1.13
2022-10-10T04:32:45.817Z,-1.14
2022-10-10T04:34:55.651Z,-1.14
2022-10-10T04:37:01.311Z,-1.12
2022-10-10T04:39:07.303Z,-1.12
2022-10-10T04:41:13.301Z,-1.11
2022-10-10T04:43:19.444Z,-1.1
2022-10-10T04:45:27.682Z,-1.11
2022-10-10T04:47:40.144Z,-1.12
2022-10-10T04:49:46.342Z,-1.11
2022-10-10T04:51:52.486Z,-1.11
2022-10-10T04:53:57.929Z,-1.12
2022-10-10T04:56:03.273Z,-1.13
2022-10-10T04:58:08.824Z,-1.13
2022-10-10T05:00:14.908Z,-1.15
2022-10-10T05:02:20.239Z,-1.15
2022-10-10T05:04:30.754Z,-1.14
2022-10-10T05:06:36.728Z,-1.1
2022-10-10T05:08:42.548Z,-1.09
2022-10-10T05:10:48.676Z,-1.06
2022-10-10T05:12:54.751Z,-1.05
2022-10-10T05:15:00.791Z,-1.04
2022-10-10T05:17:06.601Z,-1.04
2022-10-10T05:19:11.938Z,-1.01
2022-10-10T05:21:17.455Z,-0.97
2022-10-10T05:23:23.590Z,-0.97
2022-10-10T05:25:29.433Z,-0.93
2022-10-10T05:27:35.454Z,-0.9
2022-10-10T05:29:40.556Z,-0.86
2022-10-10T05:31:45.855Z,-0.83
2022-10-10T05:33:51.078Z,-0.8
2022-10-10T05:35:56.434Z,-0.77
2022-10-10T05:38:01.393Z,-0.72
2022-10-10T05:40:06.746Z,-0.69
2022-10-10T05:42:12.255Z,-0.68
2022-10-10T05:44:17.468Z,-0.65
2022-10-10T05:46:23.476Z,-0.62
2022-10-10T05:48:28.856Z,-0.59
2022-10-10T05:50:34.933Z,-0.55
2022-10-10T05:52:41.082Z,-0.49
2022-10-10T05:54:46.978Z,-0.47
2022-10-10T05:56:54.144Z,-0.45
2022-10-10T05:58:59.470Z,-0.41
2022-10-10T06:01:04.546Z,-0.37
2022-10-10T06:03:09.745Z,-0.35
2022-10-10T06:05:14.815Z,-0.29
2022-10-10T06:07:20.514Z,-0.24
2022-10-10T06:09:26.148Z,-0.19
2022-10-10T06:11:31.318Z,-0.12
2022-10-10T06:13:36.364Z,-0.07
2022-10-10T06:15:42.722Z,-0.01
2022-10-10T06:17:48.064Z,0.04
2022-10-10T06:19:53.440Z,0.05
2022-10-10T06:21:59.693Z,0.12
2022-10-10T06:24:05.090Z,0.17
2022-10-10T06:26:10.243Z,0.22
2022-10-10T06:30:46.715Z,0.34
2022-10-10T06:32:55.876Z,0.41
2022-10-10T06:35:03.874Z,0.43
2022-10-10T06:37:14.627Z,0.48
2022-10-10T06:39:19.609Z,0.5
2022-10-10T06:41:24.679Z,0.57
2022-10-10T06:43:33.875Z,0.63
2022-10-10T06:45:39.285Z,0.71
2022-10-10T06:47:44.337Z,0.8
2022-10-10T06:49:51.650Z,0.9
2022-10-10T06:51:56.979Z,1.02
2022-10-10T06:54:02.452Z,1.28
2022-10-10T06:56:08.231Z,1.57
2022-10-10T06:58:13.135Z,1.57
2022-10-10T07:00:19.620Z,1.68
2022-10-10T07:02:24.967Z,1.95
2022-10-10T07:04:30.954Z,2.41
2022-10-10T07:06:42.006Z,2.61
2022-10-10T07:08:48.242Z,2.74
2022-10-10T07:10:54.232Z,2.82
2022-10-10T07:13:01.992Z,2.88
2022-10-10T07:15:08.580Z,3.1
2022-10-10T07:17:14.578Z,3.31
2022-10-10T07:19:20.955Z,3.97
2022-10-10T07:21:29.706Z,4.04
2022-10-10T07:23:38.658Z,4.17
2022-10-10T07:25:43.845Z,4.53
2022-10-10T07:27:49.181Z,4.67
2022-10-10T07:29:54.887Z,4.82
2022-10-10T07:32:04.722Z,4.92
2022-10-10T07:34:09.881Z,4.94
2022-10-10T07:36:20.734Z,5.08
2022-10-10T07:38:27.008Z,5.19
2022-10-10T07:40:32.142Z,5.24
2022-10-10T07:42:38.198Z,5.53
2022-10-10T07:44:43.374Z,5.61
2022-10-10T07:46:48.363Z,5.79
2022-10-10T07:48:54.873Z,5.87
2022-10-10T07:51:00.161Z,6.11
2022-10-10T07:53:05.253Z,6.29
2022-10-10T07:55:13.607Z,6.56
2022-10-10T07:57:24.554Z,6.63
2022-10-10T07:59:31.094Z,6.71
2022-10-10T08:01:39.859Z,6.8
2022-10-10T08:03:45.213Z,6.85
2022-10-10T08:05:56.237Z,7.05
2022-10-10T08:08:02.030Z,7.21
2022-10-10T08:10:07.776Z,7.3
2022-10-10T08:12:13.708Z,7.64
2022-10-10T08:14:24.938Z,7.76
2022-10-10T08:16:34.627Z,8.22
2022-10-10T08:18:40.828Z,8.35
2022-10-10T08:20:48.173Z,8.52
2022-10-10T08:22:55.584Z,8.58
2022-10-10T08:25:01.532Z,8.73
2022-10-10T08:27:06.966Z,8.77
2022-10-10T08:29:12.109Z,8.69
2022-10-10T08:31:17.621Z,8.73
2022-10-10T08:33:23.750Z,8.86
2022-10-10T08:35:29.484Z,8.92
2022-10-10T08:37:37.297Z,9.41
2022-10-10T08:39:44.071Z,9.76
2022-10-10T08:41:49.972Z,10.04
2022-10-10T08:43:58.945Z,10.45
2022-10-10T08:46:04.403Z,10.88
2022-10-10T08:48:10.882Z,11.36
2022-10-10T08:50:16.149Z,11.98
2022-10-10T08:52:25.942Z,12.54
2022-10-10T08:57:03.822Z,13.66
2022-10-10T08:59:09.918Z,13.16
2022-10-10T09:01:15.528Z,13.26
2022-10-10T09:03:20.860Z,13.58
2022-10-10T09:05:27.124Z,14.49
2022-10-10T09:07:35.735Z,14.83
2022-10-10T09:09:40.986Z,15.16
2022-10-10T09:11:46.986Z,15.31
2022-10-10T09:13:57.628Z,14.94
2022-10-10T09:16:06.342Z,14.72
2022-10-10T09:18:12.339Z,14.98
2022-10-10T09:20:20.917Z,15.03
2022-10-10T09:22:30.805Z,16.87
2022-10-10T09:24:41.182Z,16.41
2022-10-10T09:26:49.929Z,16.19
2022-10-10T09:28:56.017Z,15.96
2022-10-10T09:31:02.519Z,15.94
2022-10-10T09:33:08.188Z,16.4
2022-10-10T09:37:48.089Z,16.79
2022-10-10T09:39:56.659Z,17.52
2022-10-10T09:44:28.980Z,17.23
2022-10-10T09:46:34.934Z,17.95
2022-10-10T09:48:40.484Z,17.71
2022-10-10T09:50:48.618Z,16.98
2022-10-10T09:55:23.842Z,18.07
2022-10-10T09:57:30.906Z,16.91
2022-10-10T09:59:36.471Z,17.37
2022-10-10T10:01:42.300Z,18.21
2022-10-10T10:03:49.240Z,17.72
2022-10-10T10:06:15.053Z,17.74
2022-10-10T10:08:23.058Z,17.61
2022-10-10T10:10:28.565Z,17.44
2022-10-10T10:12:35.157Z,19.33
2022-10-10T10:14:44.784Z,20
2022-10-10T10:16:51.447Z,18.7
2022-10-10T10:18:57.215Z,17.42
2022-10-10T10:21:05.172Z,17.77
2022-10-10T10:23:11.464Z,18.36
2022-10-10T10:25:19.669Z,17.86
2022-10-10T10:27:31.796Z,18.21
2022-10-10T10:29:38.278Z,19.23
2022-10-10T10:31:48.061Z,19.7
2022-10-10T10:33:55.505Z,20.21
2022-10-10T10:36:02.052Z,21.32
2022-10-10T10:38:09.404Z,20.27
2022-10-10T10:40:14.853Z,20.06
2022-10-10T10:42:20.294Z,19.52
2022-10-10T10:44:26.690Z,19.99
2022-10-10T10:46:33.144Z,19.89
2022-10-10T10:48:39.291Z,21.23
2022-10-10T10:50:45.413Z,22.23
2022-10-10T10:52:59.917Z,21.4
2022-10-10T10:55:07.357Z,20.28
2022-10-10T10:57:40.743Z,19.84
2022-10-10T11:01:52.122Z,20.13
2022-10-10T11:05:16.755Z,19.51
2022-10-10T11:07:46.629Z,20.06
2022-10-10T11:09:53.222Z,19.49
2022-10-10T11:12:04.485Z,21.12
2022-10-10T11:14:11.018Z,21.91
2022-10-10T11:16:36.587Z,22.87
2022-10-10T11:18:55.318Z,21.9
2022-10-10T11:21:04.946Z,20.85
2022-10-10T11:23:11.557Z,20.65
2022-10-10T11:25:20.218Z,19.4
2022-10-10T11:29:53.520Z,19.19
2022-10-10T11:31:59.882Z,20.68
2022-10-10T11:36:33.531Z,21.62
2022-10-10T11:38:42.748Z,20.96
2022-10-10T11:40:49.220Z,21.39
2022-10-10T11:42:59.927Z,22.44
2022-10-10T11:45:06.117Z,19.83
2022-10-10T11:49:38.866Z,20.57
2022-10-10T11:51:45.002Z,19.49
2022-10-10T11:53:55.273Z,18.96
2022-10-10T11:56:01.711Z,17.79
2022-10-10T11:58:11.582Z,16.58
2022-10-10T12:00:18.544Z,16.03
2022-10-10T12:02:25.692Z,15.81
2022-10-10T12:04:34.876Z,15.84
2022-10-10T12:06:41.304Z,15.74
2022-10-10T12:08:50.957Z,15.49
2022-10-10T12:10:57.129Z,15.21
2022-10-10T12:13:02.786Z,15.16
2022-10-10T12:15:08.695Z,15.07
2022-10-10T12:19:41.140Z,14.88
2022-10-10T12:21:51.095Z,14.85
2022-10-10T12:23:57.668Z,14.84
2022-10-10T12:26:04.407Z,14.88
2022-10-10T12:28:12.253Z,14.89
2022-10-10T12:30:18.838Z,14.83
2022-10-10T12:35:16.790Z,14.92
2022-10-10T12:37:23.167Z,14.89
2022-10-10T12:39:30.021Z,14.86
2022-10-10T12:41:36.122Z,14.84
2022-10-10T12:43:49.540Z,14.91
2022-10-10T12:45:59.130Z,14.91
2022-10-10T12:48:09.967Z,14.85
2022-10-10T12:50:17.457Z,14.89
2022-10-10T12:52:24.519Z,14.87
2022-10-10T12:54:33.267Z,14.83
2022-10-10T12:56:43.160Z,14.72
2022-10-10T12:58:50.309Z,14.78
2022-10-10T13:00:58.780Z,14.69
2022-10-10T13:03:06.738Z,14.82
2022-10-10T13:05:15.204Z,14.81
2022-10-10T13:07:27.280Z,14.81
2022-10-10T13:09:35.324Z,14.86
2022-10-10T13:11:42.176Z,14.86
2022-10-10T13:13:52.622Z,14.92
2022-10-10T13:16:00.103Z,14.86
2022-10-10T13:18:06.955Z,14.79
2022-10-10T13:20:16.109Z,14.79
2022-10-10T13:22:34.150Z,14.81
2022-10-10T13:24:49.715Z,14.73
2022-10-10T13:26:55.999Z,14.73
2022-10-10T13:29:03.072Z,14.65
2022-10-10T13:31:10.269Z,14.61
2022-10-10T13:33:17.738Z,14.64
2022-10-10T13:35:24.857Z,14.6
2022-10-10T13:37:31.153Z,14.67
2022-10-10T13:39:39.393Z,14.7
2022-10-10T13:41:45.871Z,14.69
2022-10-10T13:43:54.108Z,14.68
2022-10-10T13:46:00.523Z,14.58
2022-10-10T13:48:06.617Z,14.54
2022-10-10T13:50:12.705Z,14.48
2022-10-10T13:52:19.083Z,14.54
2022-10-10T13:54:25.201Z,14.49
2022-10-10T13:56:31.077Z,14.45
2022-10-10T13:58:37.253Z,14.28
2022-10-10T14:00:45.409Z,14.23
2022-10-10T14:02:51.568Z,14.11
2022-10-10T14:04:57.283Z,14.08
2022-10-10T14:07:05.766Z,14.13
2022-10-10T14:09:13.671Z,14.08
2022-10-10T14:11:21.816Z,14.01
2022-10-10T14:13:31.845Z,13.92
2022-10-10T14:15:40.977Z,13.78
2022-10-10T14:17:49.896Z,13.76
2022-10-10T14:19:56.601Z,13.92
2022-10-10T14:22:03.280Z,13.87
2022-10-10T14:24:11.243Z,13.65
2022-10-10T14:26:19.709Z,13.49
2022-10-10T14:28:28.206Z,13.42
2022-10-10T14:33:04.356Z,13.25
2022-10-10T14:35:10.675Z,13.12
2022-10-10T14:37:20.047Z,13.33
2022-10-10T14:39:26.174Z,13.27
2022-10-10T14:41:33.096Z,13.18
2022-10-10T14:43:46.107Z,13.05
2022-10-10T14:45:56.398Z,13.05
2022-10-10T14:48:05.983Z,12.92
2022-10-10T14:50:15.972Z,12.82
2022-10-10T14:52:23.774Z,12.66
2022-10-10T14:54:32.396Z,12.79
2022-10-10T14:57:06.692Z,12.59
2022-10-10T14:59:16.396Z,12.26
2022-10-10T15:01:54.319Z,11.88
2022-10-10T15:04:04.104Z,11.6
2022-10-10T15:09:39.808Z,11.11
2022-10-10T15:12:37.555Z,11.2
2022-10-10T15:14:44.609Z,11.18
2022-10-10T15:16:56.760Z,10.96
2022-10-10T15:19:06.662Z,10.77
2022-10-10T15:21:13.842Z,10.54
2022-10-10T15:23:21.307Z,10.3
2022-10-10T15:25:34.437Z,10.15
2022-10-10T15:27:42.437Z,9.96
2022-10-10T15:29:49.272Z,9.81
2022-10-10T15:31:55.750Z,9.63
2022-10-10T15:34:03.793Z,9.51
2022-10-10T15:36:12.980Z,9.32
2022-10-10T15:38:24.763Z,9.16
2022-10-10T15:40:31.540Z,9.04
2022-10-10T15:42:41.265Z,8.87
2022-10-10T15:44:47.959Z,8.79
2022-10-10T15:46:55.808Z,8.69
2022-10-10T15:49:05.284Z,8.61
2022-10-10T15:51:11.870Z,8.5
2022-10-10T15:53:19.370Z,8.44
2022-10-10T15:55:26.808Z,8.38
2022-10-10T15:57:34.170Z,8.29
2022-10-10T15:59:43.373Z,8.14
2022-10-10T16:01:51.311Z,8.03
2022-10-10T16:04:01.506Z,7.92
2022-10-10T16:06:07.975Z,7.81
2022-10-10T16:08:13.971Z,7.71
2022-10-10T16:10:21.269Z,7.58
2022-10-10T16:12:27.529Z,7.48
2022-10-10T16:14:34.650Z,7.37
2022-10-10T16:16:40.845Z,7.26
2022-10-10T16:18:47.358Z,7.15
2022-10-10T16:20:56.398Z,7.05
2022-10-10T16:23:12.920Z,6.94
2022-10-10T16:25:22.559Z,6.86
2022-10-10T16:27:34.129Z,6.76
2022-10-10T16:29:40.392Z,6.69
2022-10-10T16:31:48.029Z,6.62
2022-10-10T16:33:55.373Z,6.52
2022-10-10T16:36:01.831Z,6.46
2022-10-10T16:38:09.420Z,6.41
2022-10-10T16:40:19.431Z,6.33
2022-10-10T16:42:25.949Z,6.27
2022-10-10T16:44:33.369Z,6.2
2022-10-10T16:46:40.334Z,6.12
2022-10-10T16:48:48.676Z,6.04
2022-10-10T16:50:59.490Z,5.98
2022-10-10T16:55:39.618Z,5.81
2022-10-10T16:57:45.879Z,5.79
2022-10-10T16:59:55.273Z,5.74
2022-10-10T17:02:01.868Z,5.7
2022-10-10T17:04:08.908Z,5.65
2022-10-10T17:06:16.115Z,5.59
2022-10-10T17:08:23.719Z,5.54
2022-10-10T17:10:30.280Z,5.49
2022-10-10T17:12:37.042Z,5.44
2022-10-10T17:14:43.140Z,5.4
2022-10-10T17:19:31.287Z,5.29
2022-10-10T17:21:38.489Z,5.27
2022-10-10T17:23:47.351Z,5.19
2022-10-10T17:25:54.056Z,5.17
2022-10-10T17:30:29.104Z,5.11
2022-10-10T17:35:04.574Z,5.1
2022-10-10T17:37:11.631Z,5.06
2022-10-10T17:39:21.399Z,5.01
2022-10-10T17:41:28.168Z,4.99
2022-10-10T17:43:37.034Z,4.94
2022-10-10T17:45:45.226Z,4.91
2022-10-10T17:47:53.452Z,4.88
2022-10-10T17:50:04.952Z,4.84
2022-10-10T17:52:21.036Z,4.82
2022-10-10T17:54:27.605Z,4.83
2022-10-10T17:56:39.905Z,4.85
2022-10-10T17:58:46.299Z,4.89
2022-10-10T18:00:53.807Z,4.9
2022-10-10T18:03:08.745Z,4.9
2022-10-10T18:05:16.082Z,4.9
2022-10-10T18:07:29.366Z,4.94
2022-10-10T18:09:36.495Z,4.94
2022-10-10T18:11:43.513Z,4.92
2022-10-10T18:13:54.877Z,4.96
2022-10-10T18:16:06.787Z,5.03
2022-10-10T18:18:15.310Z,5.03
2022-10-10T18:20:23.360Z,5.05
2022-10-10T18:22:32.153Z,5.06
2022-10-10T18:24:42.503Z,5.07
2022-10-10T18:26:50.020Z,5.05
2022-10-10T18:29:00.123Z,5.04
2022-10-10T18:31:13.621Z,5.06
2022-10-10T18:33:22.550Z,5.07
2022-10-10T18:35:35.330Z,5.1
2022-10-10T18:37:47.384Z,5.1
2022-10-10T18:39:55.891Z,5.11
2022-10-10T18:42:05.855Z,5.15
2022-10-10T18:44:12.954Z,5.18
2022-10-10T18:46:23.761Z,5.25
2022-10-10T18:48:30.991Z,5.25
2022-10-10T18:50:38.332Z,5.27
2022-10-10T18:52:49.236Z,5.28
2022-10-10T18:54:57.170Z,5.28
2022-10-10T18:57:08.425Z,5.3
2022-10-10T18:59:21.215Z,5.29
2022-10-10T19:01:29.295Z,5.31
2022-10-10T19:03:43.006Z,5.31
2022-10-10T19:05:51.704Z,5.34
2022-10-10T19:08:03.089Z,5.33
2022-10-10T19:10:10.904Z,5.3
2022-10-10T19:15:05.860Z,5.32
2022-10-10T19:17:20.186Z,5.3
2022-10-10T19:22:22.564Z,5.34
2022-10-10T19:26:58.610Z,5.22
2022-10-10T19:36:54.225Z,5.21
2022-10-10T19:44:21.660Z,5.24
2022-10-10T19:48:59.724Z,5.32
2022-10-10T19:51:07.633Z,5.32
2022-10-10T19:53:20.729Z,5.35
2022-10-10T19:55:33.656Z,5.31
2022-10-10T19:57:47.353Z,5.3
2022-10-10T19:59:57.880Z,5.32
2022-10-10T20:04:41.270Z,5.33
2022-10-10T20:06:51.635Z,5.31
2022-10-10T20:09:00.240Z,5.3
2022-10-10T20:13:44.703Z,5.43
2022-10-10T20:23:24.811Z,5.54
2022-10-10T20:25:34.295Z,5.47
2022-10-10T20:27:42.865Z,5.43
2022-10-10T20:29:54.561Z,5.35
2022-10-10T20:32:06.289Z,5.32
2022-10-10T20:37:05.488Z,5.23
2022-10-10T20:39:13.932Z,5.3
2022-10-10T20:41:22.671Z,5.31
2022-10-10T20:43:29.492Z,5.28
2022-10-10T20:45:46.075Z,5.27
2022-10-10T20:47:54.607Z,5.22
2022-10-10T20:52:35.524Z,5.11
2022-10-10T20:54:43.390Z,5.08
2022-10-10T20:56:57.979Z,5.08
2022-10-10T20:59:09.182Z,5.1
2022-10-10T21:01:15.508Z,5.13
2022-10-10T21:03:24.931Z,5.18
2022-10-10T21:05:38.540Z,5.13
2022-10-10T21:07:50.602Z,5.19
2022-10-10T21:10:00.511Z,5.17
2022-10-10T21:12:13.327Z,5.18
2022-10-10T21:16:54.870Z,5.19
2022-10-10T21:19:05.259Z,5.18
2022-10-10T21:21:15.697Z,5.11
2022-10-10T21:23:26.338Z,5.17
2022-10-10T21:37:56.186Z,5.38
2022-10-10T21:40:05.759Z,5.35
2022-10-10T21:42:15.759Z,5.41
2022-10-10T21:44:24.795Z,5.37
2022-10-10T21:46:37.280Z,5.38
2022-10-10T21:48:49.256Z,5.36
2022-10-10T21:50:57.216Z,5.29
2022-10-10T21:53:05.656Z,5.3
2022-10-10T22:00:14.644Z,5.21
2022-10-10T22:04:58.435Z,5.34
2022-10-10T22:07:13.441Z,5.44
2022-10-10T22:09:25.730Z,5.51
2022-10-10T22:11:41.568Z,5.59
2022-10-10T22:13:53.119Z,5.64
2022-10-10T22:16:08.458Z,5.71
2022-10-10T22:18:20.351Z,5.7
2022-10-10T22:25:34.371Z,5.63
2022-10-10T22:27:42.055Z,5.66
2022-10-10T22:29:49.862Z,5.63
2022-10-10T22:32:05.160Z,5.6
2022-10-10T22:39:14.242Z,5.54
2022-10-10T22:41:25.817Z,5.5
2022-10-10T22:43:35.253Z,5.44
2022-10-10T22:45:47.125Z,5.41
2022-10-10T22:50:51.398Z,5.44
2022-10-10T22:52:58.843Z,5.41
2022-10-10T22:57:56.738Z,5.38
2022-10-10T23:00:04.812Z,5.37
2022-10-10T23:02:16.165Z,5.33
2022-10-10T23:04:26.918Z,5.27
2022-10-10T23:06:41.558Z,5.23
2022-10-10T23:11:18.187Z,5.32
2022-10-10T23:13:33.786Z,5.33
2022-10-10T23:15:46.340Z,5.31
2022-10-10T23:25:41.728Z,5.24
2022-10-10T23:27:53.182Z,5.22
2022-10-10T23:30:06.484Z,5.21
2022-10-10T23:34:51.645Z,5.11
2022-10-10T23:39:32.177Z,5.01
2022-10-10T23:41:44.361Z,4.97
2022-10-10T23:48:55.920Z,4.83
2022-10-10T23:51:10.194Z,4.81
2022-10-10T23:53:21.835Z,4.79
2022-10-10T23:55:31.597Z,4.73
2022-10-10T23:57:49.274Z,4.67
